createdAt,value
2018-12-25T00:02:29.562Z,103504.52
2018-12-25T00:05:11.202Z,103515.30
2018-12-25T00:07:49.165Z,103505.30
2018-12-25T00:10:28.520Z,103507.31
2018-12-25T00:13:08.229Z,103504.42
2018-12-25T00:15:48.455Z,103505.61
2018-12-25T00:18:30.978Z,103502.23
2018-12-25T00:21:10.912Z,103503.72
2018-12-25T00:23:53.413Z,103502.91
2018-12-25T00:26:34.003Z,103504.73
2018-12-25T00:29:13.211Z,103500.01
2018-12-25T00:31:52.478Z,103496.22
2018-12-25T00:34:36.854Z,103500.72
2018-12-25T00:37:16.836Z,103496.11
2018-12-25T00:39:57.523Z,103497.52
2018-12-25T00:42:41.950Z,103493.63
2018-12-25T00:45:26.894Z,103469.61
2018-12-25T00:48:08.191Z,103484.63
2018-12-25T00:50:46.478Z,103486.30
2018-12-25T00:53:29.718Z,103483.70
2018-12-25T00:56:13.985Z,103498.83
2018-12-25T00:58:57.933Z,103497.00
2018-12-25T01:01:38.555Z,103510.53
2018-12-25T01:04:23.737Z,103502.43
2018-12-25T01:07:03.218Z,103502.02
2018-12-25T01:09:43.808Z,103495.11
2018-12-25T01:12:27.481Z,103496.93
2018-12-25T01:15:06.567Z,103507.93
2018-12-25T01:17:53.265Z,103503.22
2018-12-25T01:20:32.776Z,103502.91
2018-12-25T01:23:16.250Z,103503.44
2018-12-25T01:25:57.597Z,103502.25
2018-12-25T01:28:47.806Z,103507.67
2018-12-25T01:31:31.126Z,103504.77
2018-12-25T01:34:11.301Z,103501.24
2018-12-25T01:36:51.175Z,103505.25
2018-12-25T01:39:31.970Z,103509.34
2018-12-25T01:42:19.980Z,103507.74
2018-12-25T01:44:58.492Z,103510.56
2018-12-25T01:47:44.146Z,103508.45
2018-12-25T01:50:25.284Z,103515.84
2018-12-25T01:53:05.455Z,103514.66
2018-12-25T01:55:45.056Z,103501.64
2018-12-25T01:58:27.477Z,103510.05
2018-12-25T02:01:05.756Z,103503.94
2018-12-25T02:03:50.024Z,103492.72
2018-12-25T02:06:33.187Z,103491.94
2018-12-25T02:09:20.295Z,103495.95
2018-12-25T02:12:02.636Z,103489.03
2018-12-25T02:14:42.405Z,103488.63
2018-12-25T02:17:24.189Z,103489.52
2018-12-25T02:20:05.492Z,103491.81
2018-12-25T02:22:47.939Z,103493.12
2018-12-25T02:25:30.733Z,103493.63
2018-12-25T02:28:10.262Z,103494.60
2018-12-25T02:30:48.981Z,103498.20
2018-12-25T02:33:29.578Z,103500.51
2018-12-25T02:36:10.549Z,103497.30
2018-12-25T02:38:53.410Z,103487.41
2018-12-25T02:41:34.411Z,103482.79
2018-12-25T02:44:17.483Z,103484.68
2018-12-25T02:46:56.279Z,103476.05
2018-12-25T02:49:36.670Z,103486.68
2018-12-25T02:52:18.776Z,103483.36
2018-12-25T02:54:58.107Z,103471.72
2018-12-25T02:57:40.259Z,103475.84
2018-12-25T03:00:19.216Z,103469.81
2018-12-25T03:02:59.606Z,103472.22
2018-12-25T03:05:44.722Z,103479.73
2018-12-25T03:08:25.919Z,103481.61
2018-12-25T03:11:07.190Z,103473.98
2018-12-25T03:13:51.328Z,103443.48
2018-12-25T03:16:31.648Z,103468.16
2018-12-25T03:19:11.987Z,103455.67
2018-12-25T03:21:52.718Z,103477.25
2018-12-25T03:24:33.313Z,103481.64
2018-12-25T03:27:15.746Z,103489.97
2018-12-25T03:29:58.144Z,103483.05
2018-12-25T03:32:40.765Z,103480.03
2018-12-25T03:35:22.405Z,103477.84
2018-12-25T03:38:06.258Z,103470.02
2018-12-25T03:40:46.679Z,103463.51
2018-12-25T03:43:27.087Z,103460.91
2018-12-25T03:46:11.443Z,103451.38
2018-12-25T03:48:51.704Z,103454.56
2018-12-25T03:51:33.953Z,103450.35
2018-12-25T03:54:21.409Z,103451.34
2018-12-25T03:57:02.418Z,103450.15
2018-12-25T03:59:41.237Z,103445.04
2018-12-25T04:02:28.210Z,103431.19
2018-12-25T04:05:08.322Z,103434.31
2018-12-25T04:07:49.310Z,103420.77
2018-12-25T04:10:33.426Z,103423.37
2018-12-25T04:13:14.044Z,103428.58
2018-12-25T04:15:54.942Z,103422.96
2018-12-25T04:18:36.579Z,103427.80
2018-12-25T04:21:17.947Z,103423.48
2018-12-25T04:23:58.249Z,103423.89
2018-12-25T04:26:43.937Z,103430.88
2018-12-25T04:29:29.291Z,103426.97
2018-12-25T04:32:09.379Z,103434.89
2018-12-25T04:34:49.585Z,103436.58
2018-12-25T04:37:30.357Z,103435.27
2018-12-25T04:40:08.469Z,103441.00
2018-12-25T04:42:48.660Z,103443.50
2018-12-25T04:45:28.012Z,103440.89
2018-12-25T04:48:07.878Z,103443.91
2018-12-25T04:50:48.233Z,103437.81
2018-12-25T04:53:28.595Z,103434.79
2018-12-25T04:56:07.286Z,103439.59
2018-12-25T04:58:47.172Z,103373.88
2018-12-25T05:01:25.366Z,103433.48
2018-12-25T05:04:06.541Z,103437.39
2018-12-25T05:06:46.313Z,103447.41
2018-12-25T05:09:25.934Z,103453.03
2018-12-25T05:12:04.550Z,103452.62
2018-12-25T05:14:44.990Z,103457.41
2018-12-25T05:17:26.225Z,103456.11
2018-12-25T05:20:05.805Z,103450.91
2018-12-25T05:22:48.622Z,103460.95
2018-12-25T05:25:30.440Z,103479.56
2018-12-25T05:28:12.875Z,103480.08
2018-12-25T05:30:51.072Z,103478.78
2018-12-25T05:33:29.944Z,103480.87
2018-12-25T05:36:14.443Z,103479.09
2018-12-25T05:38:53.926Z,103480.87
2018-12-25T05:41:34.380Z,103475.17
2018-12-25T05:44:16.889Z,103475.66
2018-12-25T05:46:54.232Z,103474.87
2018-12-25T05:49:33.836Z,103472.16
2018-12-25T05:52:13.756Z,103466.95
2018-12-25T05:54:57.748Z,103470.96
2018-12-25T05:57:36.534Z,103470.96
2018-12-25T06:00:16.954Z,103466.64
2018-12-25T06:02:57.222Z,103461.53
2018-12-25T06:05:38.205Z,103460.23
2018-12-25T06:08:31.405Z,103459.41
2018-12-25T06:11:11.566Z,103446.69
2018-12-25T06:13:52.532Z,103459.23
2018-12-25T06:16:33.049Z,103458.41
2018-12-25T06:19:16.779Z,103451.42
2018-12-25T06:22:00.397Z,103448.50
2018-12-25T06:24:36.912Z,103439.80
2018-12-25T06:27:16.465Z,103440.27
2018-12-25T06:29:58.040Z,103442.98
2018-12-25T06:32:38.612Z,103444.28
2018-12-25T06:35:18.683Z,103447.78
2018-12-25T06:38:00.559Z,103447.89
2018-12-25T06:40:47.152Z,103456.19
2018-12-25T06:43:28.777Z,103447.37
2018-12-25T06:46:08.648Z,103448.36
2018-12-25T06:48:48.956Z,103437.95
2018-12-25T06:51:32.518Z,103450.97
2018-12-25T06:54:11.650Z,103459.30
2018-12-25T06:56:50.977Z,103448.88
2018-12-25T06:59:33.582Z,103444.15
2018-12-25T07:02:09.853Z,103443.26
2018-12-25T07:04:49.552Z,103442.74
2018-12-25T07:07:28.846Z,103439.55
2018-12-25T07:10:09.757Z,103442.47
2018-12-25T07:12:48.700Z,103441.00
2018-12-25T07:15:33.185Z,103440.00
2018-12-25T07:18:10.095Z,103436.30
2018-12-25T07:20:48.845Z,103438.32
2018-12-25T07:23:29.106Z,103427.31
2018-12-25T07:26:07.976Z,103429.34
2018-12-25T07:28:50.757Z,103424.74
2018-12-25T07:31:31.488Z,103430.56
2018-12-25T07:34:12.280Z,103429.50
2018-12-25T07:36:54.791Z,103432.52
2018-12-25T07:39:37.766Z,103421.69
2018-12-25T07:42:17.210Z,103419.56
2018-12-25T07:44:59.525Z,103422.68
2018-12-25T07:47:37.530Z,103409.55
2018-12-25T07:50:19.401Z,103407.36
2018-12-25T07:53:01.688Z,103415.17
2018-12-25T07:55:40.545Z,103413.46
2018-12-25T07:58:22.150Z,103412.74
2018-12-25T08:01:02.100Z,103399.83
2018-12-25T08:03:42.088Z,103398.21
2018-12-25T08:06:25.969Z,103386.80
2018-12-25T08:09:05.690Z,103389.88
2018-12-25T08:11:45.956Z,103393.41
2018-12-25T08:14:28.140Z,103386.49
2018-12-25T08:17:06.435Z,103394.48
2018-12-25T08:19:45.566Z,103392.38
2018-12-25T08:22:24.421Z,103392.05
2018-12-25T08:25:14.369Z,103393.45
2018-12-25T08:27:52.498Z,103394.34
2018-12-25T08:30:29.417Z,103401.27
2018-12-25T08:33:10.890Z,103394.34
2018-12-25T08:35:50.290Z,103397.77
2018-12-25T08:38:33.101Z,103402.98
2018-12-25T08:41:12.827Z,103406.37
2018-12-25T08:43:53.456Z,103407.60
2018-12-25T08:46:35.590Z,103397.83
2018-12-25T08:49:23.327Z,103428.17
2018-12-25T08:52:03.375Z,103439.00
2018-12-25T08:54:41.092Z,103445.17
2018-12-25T08:57:23.467Z,103434.72
2018-12-25T09:00:08.818Z,103437.29
2018-12-25T09:02:59.657Z,103435.78
2018-12-25T09:05:41.480Z,103434.89
2018-12-25T09:08:21.100Z,103448.98
2018-12-25T09:11:05.529Z,103456.36
2018-12-25T09:13:44.540Z,103449.80
2018-12-25T09:16:28.531Z,103450.08
2018-12-25T09:19:11.441Z,103447.74
2018-12-25T09:21:56.445Z,103447.53
2018-12-25T09:24:43.973Z,103452.91
2018-12-25T09:27:23.837Z,103450.98
2018-12-25T09:30:10.204Z,103452.80
2018-12-25T09:32:50.209Z,103458.50
2018-12-25T09:35:31.442Z,103454.00
2018-12-25T09:38:17.386Z,103458.74
2018-12-25T09:40:57.121Z,103462.14
2018-12-25T09:43:34.294Z,103461.14
2018-12-25T09:46:11.535Z,103460.52
2018-12-25T09:48:48.856Z,103466.83
2018-12-25T09:51:34.231Z,103472.22
2018-12-25T09:54:10.061Z,103472.22
2018-12-25T09:56:55.303Z,103471.91
2018-12-25T09:59:34.170Z,103476.19
2018-12-25T10:02:12.805Z,103473.53
2018-12-25T10:04:52.922Z,103474.27
2018-12-25T10:07:32.271Z,103479.34
2018-12-25T10:10:11.795Z,103469.58
2018-12-25T10:12:51.953Z,103470.36
2018-12-25T10:15:30.250Z,103472.72
2018-12-25T10:18:14.092Z,103472.91
2018-12-25T10:20:57.310Z,103469.64
2018-12-25T10:23:38.293Z,103471.14
2018-12-25T10:26:20.979Z,103472.30
2018-12-25T10:29:00.117Z,103485.70
2018-12-25T10:31:39.272Z,103483.03
2018-12-25T10:34:14.613Z,103478.95
2018-12-25T10:36:52.256Z,103478.38
2018-12-25T10:39:29.990Z,103482.91
2018-12-25T10:42:13.632Z,103485.16
2018-12-25T10:44:53.551Z,103476.53
2018-12-25T10:47:33.858Z,103472.30
2018-12-25T10:50:17.703Z,103470.10
2018-12-25T10:53:06.335Z,103464.88
2018-12-25T10:55:45.743Z,103459.14
2018-12-25T10:58:25.488Z,103450.99
2018-12-25T11:01:21.848Z,103443.31
2018-12-25T11:04:02.310Z,103443.89
2018-12-25T11:06:43.358Z,103434.17
2018-12-25T11:09:24.443Z,103429.05
2018-12-25T11:12:03.302Z,103433.28
2018-12-25T11:14:38.220Z,103424.73
2018-12-25T11:17:17.726Z,103429.44
2018-12-25T11:19:57.556Z,103430.91
2018-12-25T11:22:34.712Z,103438.74
2018-12-25T11:25:13.740Z,103424.55
2018-12-25T11:27:52.938Z,103426.84
2018-12-25T11:30:36.402Z,103423.65
2018-12-25T11:33:17.830Z,103417.78
2018-12-25T11:35:57.120Z,103415.42
2018-12-25T11:38:37.402Z,103415.92
2018-12-25T11:41:18.901Z,103405.81
2018-12-25T11:43:57.991Z,103406.09
2018-12-25T11:46:42.016Z,103401.28
2018-12-25T11:49:26.295Z,103398.31
2018-12-25T11:52:07.014Z,103392.85
2018-12-25T11:54:51.256Z,103392.53
2018-12-25T11:57:30.866Z,103395.02
2018-12-25T12:00:10.337Z,103384.43
2018-12-25T12:02:50.569Z,103387.75
2018-12-25T12:05:33.908Z,103371.27
2018-12-25T12:08:14.792Z,103392.74
2018-12-25T12:10:53.614Z,103383.69
2018-12-25T12:13:32.542Z,103387.42
2018-12-25T12:16:07.215Z,103383.41
2018-12-25T12:18:47.360Z,103379.39
2018-12-25T12:21:27.083Z,103377.00
2018-12-25T12:24:07.675Z,103374.53
2018-12-25T12:26:50.360Z,103375.50
2018-12-25T12:29:29.974Z,103371.72
2018-12-25T12:32:13.813Z,103363.08
2018-12-25T12:34:55.364Z,103368.63
2018-12-25T12:37:38.121Z,103356.13
2018-12-25T12:40:16.984Z,103356.89
2018-12-25T12:43:00.142Z,103352.69
2018-12-25T12:45:41.404Z,103355.77
2018-12-25T12:48:24.886Z,103356.41
2018-12-25T12:51:07.935Z,103354.45
2018-12-25T12:53:47.900Z,103348.14
2018-12-25T12:56:25.585Z,103349.28
2018-12-25T12:59:08.210Z,103359.66
2018-12-25T13:01:48.643Z,103357.66
2018-12-25T13:04:30.130Z,103357.78
2018-12-25T13:07:08.080Z,103356.59
2018-12-25T13:09:47.190Z,103363.12
2018-12-25T13:12:28.285Z,103360.84
2018-12-25T13:15:08.513Z,103358.08
2018-12-25T13:17:47.283Z,103352.68
2018-12-25T13:20:28.533Z,103351.87
2018-12-25T13:23:08.680Z,103354.48
2018-12-25T13:25:48.622Z,103355.24
2018-12-25T13:28:33.976Z,103358.94
2018-12-25T13:31:18.330Z,103355.02
2018-12-25T13:34:04.055Z,103351.15
2018-12-25T13:36:45.136Z,103352.88
2018-12-25T13:39:27.094Z,103348.15
2018-12-25T13:42:05.104Z,103349.84
2018-12-25T13:44:45.389Z,103354.19
2018-12-25T13:47:26.044Z,103358.94
2018-12-25T13:50:06.064Z,103360.58
2018-12-25T13:52:49.184Z,103361.25
2018-12-25T13:55:29.921Z,103362.14
2018-12-25T13:58:11.440Z,103360.41
2018-12-25T14:00:54.135Z,103361.72
2018-12-25T14:03:37.357Z,103363.44
2018-12-25T14:06:17.262Z,103367.37
2018-12-25T14:09:00.075Z,103362.89
2018-12-25T14:11:41.729Z,103363.72
2018-12-25T14:14:22.399Z,103364.52
2018-12-25T14:17:03.702Z,103359.30
2018-12-25T14:19:42.765Z,103358.83
2018-12-25T14:22:23.213Z,103364.44
2018-12-25T14:25:05.705Z,103370.42
2018-12-25T14:27:46.392Z,103367.00
2018-12-25T14:30:28.147Z,103374.84
2018-12-25T14:33:07.415Z,103362.19
2018-12-25T14:35:50.737Z,103362.10
2018-12-25T14:38:31.526Z,103363.27
2018-12-25T14:41:11.528Z,103366.69
2018-12-25T14:43:52.325Z,103369.16
2018-12-25T14:46:34.419Z,103362.95
2018-12-25T14:49:18.195Z,103361.14
2018-12-25T14:51:56.337Z,103377.16
2018-12-25T14:54:36.263Z,103360.77
2018-12-25T14:57:19.920Z,103361.42
2018-12-25T15:00:00.435Z,103367.41
2018-12-25T15:02:43.452Z,103370.34
2018-12-25T15:05:23.820Z,103373.70
2018-12-25T15:08:02.874Z,103370.85
2018-12-25T15:10:42.354Z,103369.04
2018-12-25T15:13:27.734Z,103379.34
2018-12-25T15:16:08.047Z,103369.22
2018-12-25T15:18:48.357Z,103370.05
2018-12-25T15:21:27.744Z,103359.84
2018-12-25T15:24:08.215Z,103368.42
2018-12-25T15:26:48.181Z,103370.38
2018-12-25T15:29:30.046Z,103371.22
2018-12-25T15:32:15.374Z,103369.34
2018-12-25T15:35:00.200Z,103363.55
2018-12-25T15:37:40.440Z,103368.69
2018-12-25T15:40:22.057Z,103364.59
2018-12-25T15:43:03.322Z,103361.03
2018-12-25T15:45:45.388Z,103358.75
2018-12-25T15:48:25.937Z,103358.98
2018-12-25T15:51:07.078Z,103350.45
2018-12-25T15:53:50.579Z,103353.89
2018-12-25T15:56:37.173Z,103360.75
2018-12-25T15:59:17.511Z,103361.55
2018-12-25T16:01:58.114Z,103361.91
2018-12-25T16:04:40.645Z,103359.11
2018-12-25T16:07:20.419Z,103362.05
2018-12-25T16:10:00.169Z,103363.77
2018-12-25T16:12:45.576Z,103356.82
2018-12-25T16:15:24.165Z,103362.55
2018-12-25T16:18:09.586Z,103356.34
2018-12-25T16:20:54.185Z,103358.96
2018-12-25T16:23:32.852Z,103365.39
2018-12-25T16:26:13.159Z,103355.69
2018-12-25T16:28:53.340Z,103360.44
2018-12-25T16:31:37.665Z,103359.45
2018-12-25T16:34:19.961Z,103355.35
2018-12-25T16:37:00.419Z,103359.59
2018-12-25T16:39:44.873Z,103356.92
2018-12-25T16:42:24.880Z,103362.52
2018-12-25T16:45:05.135Z,103355.94
2018-12-25T16:47:46.512Z,103356.73
2018-12-25T16:50:27.717Z,103352.76
2018-12-25T16:53:08.383Z,103354.38
2018-12-25T16:55:48.190Z,103356.11
2018-12-25T16:58:28.161Z,103356.42
2018-12-25T17:01:08.939Z,103351.27
2018-12-25T17:03:49.497Z,103353.41
2018-12-25T17:06:32.330Z,103346.05
2018-12-25T17:09:15.682Z,103337.23
2018-12-25T17:11:54.679Z,103340.67
2018-12-25T17:14:35.459Z,103342.72
2018-12-25T17:17:19.007Z,103335.30
2018-12-25T17:20:02.603Z,103335.36
2018-12-25T17:22:42.915Z,103335.86
2018-12-25T17:25:22.476Z,103338.95
2018-12-25T17:28:02.610Z,103337.55
2018-12-25T17:30:43.707Z,103346.78
2018-12-25T17:33:24.094Z,103346.69
2018-12-25T17:36:03.614Z,103347.29
2018-12-25T17:38:43.829Z,103344.27
2018-12-25T17:41:27.300Z,103339.94
2018-12-25T17:44:06.378Z,103340.91
2018-12-25T17:46:51.039Z,103341.33
2018-12-25T17:49:33.520Z,103350.15
2018-12-25T17:52:12.777Z,103343.62
2018-12-25T17:54:52.800Z,103341.90
2018-12-25T17:57:32.553Z,103344.09
2018-12-25T18:00:12.058Z,103341.02
2018-12-25T18:02:53.546Z,103333.66
2018-12-25T18:05:34.420Z,103334.16
2018-12-25T18:08:18.126Z,103331.05
2018-12-25T18:10:54.756Z,103333.33
2018-12-25T18:13:46.016Z,103328.94
2018-12-25T18:16:30.502Z,103340.69
2018-12-25T18:19:11.823Z,103340.09
2018-12-25T18:21:55.410Z,103343.94
2018-12-25T18:24:46.248Z,103341.23
2018-12-25T18:27:45.043Z,103349.07
2018-12-25T18:30:23.984Z,103337.55
2018-12-25T18:33:09.617Z,103333.99
2018-12-25T18:35:47.394Z,103338.29
2018-12-25T18:38:29.282Z,103344.75
2018-12-25T18:41:09.322Z,103340.65
2018-12-25T18:43:54.213Z,103333.50
2018-12-25T18:46:40.310Z,103331.44
2018-12-25T18:49:22.652Z,103336.25
2018-12-25T18:52:10.487Z,103340.48
2018-12-25T18:55:02.387Z,103344.71
2018-12-25T18:57:45.724Z,103340.29
2018-12-25T19:00:24.994Z,103346.75
2018-12-25T19:03:08.163Z,103339.47
2018-12-25T19:05:49.081Z,103342.23
2018-12-25T19:08:32.152Z,103337.97
2018-12-25T19:11:14.199Z,103340.73
2018-12-25T19:13:58.097Z,103341.78
2018-12-25T19:16:39.737Z,103346.73
2018-12-25T19:19:19.959Z,103346.06
2018-12-25T19:22:02.475Z,103342.94
2018-12-25T19:28:42.544Z,103337.25
2018-12-25T19:31:25.638Z,103333.89
2018-12-25T19:34:14.494Z,103333.53
2018-12-25T19:36:59.966Z,103336.03
2018-12-25T19:39:41.119Z,103338.33
2018-12-25T19:42:27.816Z,103342.19
2018-12-25T19:45:00.633Z,103345.16
2018-12-25T19:47:40.431Z,103344.64
2018-12-25T19:50:19.935Z,103340.08
2018-12-25T19:53:03.425Z,103346.38
2018-12-25T19:55:43.398Z,103341.95
2018-12-25T19:58:26.574Z,103336.00
2018-12-25T20:01:08.014Z,103335.05
2018-12-25T20:04:16.358Z,103333.62
2018-12-25T20:07:50.916Z,103337.62
2018-12-25T20:11:54.200Z,103325.66
2018-12-25T20:15:09.448Z,103325.05
2018-12-25T20:18:28.580Z,103326.31
2018-12-25T20:22:28.280Z,103317.30
2018-12-25T20:26:06.193Z,103316.95
2018-12-25T20:29:41.502Z,103328.28
2018-12-25T20:33:24.755Z,103325.59
2018-12-25T20:36:53.904Z,103333.05
2018-12-25T20:40:40.996Z,103332.53
2018-12-25T20:44:12.030Z,103338.34
2018-12-25T20:48:15.514Z,103340.75
2018-12-25T20:51:58.913Z,103339.46
2018-12-25T20:55:44.844Z,103331.78
2018-12-25T20:59:27.993Z,103330.91
2018-12-25T21:03:25.600Z,103331.80
2018-12-25T21:07:17.226Z,103333.21
2018-12-25T21:11:03.652Z,103326.42
2018-12-25T21:15:03.292Z,103338.13
2018-12-25T21:18:46.835Z,103337.12
2018-12-25T21:22:31.854Z,103331.50
2018-12-25T21:26:00.981Z,103327.29
2018-12-25T21:28:42.910Z,103319.47
2018-12-25T21:31:26.209Z,103312.67
2018-12-25T21:34:07.117Z,103306.04
2018-12-25T21:36:55.247Z,103312.94
2018-12-25T21:39:39.331Z,103303.73
2018-12-25T21:42:39.035Z,103309.11
2018-12-25T21:45:32.894Z,103311.70
2018-12-25T21:48:19.187Z,103314.88
2018-12-25T21:51:00.325Z,103308.59
2018-12-25T21:53:48.977Z,103304.86
2018-12-25T21:56:33.139Z,103301.95
2018-12-25T21:59:17.091Z,103301.95
2018-12-25T22:02:26.403Z,103301.64
2018-12-25T22:05:08.362Z,103303.53
2018-12-25T22:08:05.521Z,103300.92
2018-12-25T22:11:03.494Z,103302.70
2018-12-25T22:13:48.255Z,103302.33
2018-12-25T22:16:35.866Z,103298.09
2018-12-25T22:19:24.515Z,103271.92
2018-12-25T22:22:01.867Z,103294.39
2018-12-25T22:24:48.420Z,103281.86
2018-12-25T22:27:39.242Z,103280.76
2018-12-25T22:30:25.250Z,103283.84
2018-12-25T22:33:13.925Z,103281.75
2018-12-25T22:35:57.322Z,103280.92
2018-12-25T22:38:38.108Z,103276.72
2018-12-25T22:41:17.493Z,103271.09
2018-12-25T22:44:01.566Z,103272.98
2018-12-25T22:46:40.671Z,103269.76
2018-12-25T22:49:23.135Z,103269.03
2018-12-25T22:52:02.218Z,103269.92
2018-12-25T22:54:42.722Z,103267.32
2018-12-25T22:57:41.902Z,103266.02
2018-12-25T23:00:25.946Z,103260.81
2018-12-25T23:03:09.685Z,103265.95
2018-12-25T23:05:55.313Z,103261.95
2018-12-25T23:08:34.235Z,103261.47
2018-12-25T23:11:07.309Z,103253.97
2018-12-25T23:13:46.891Z,103248.55
2018-12-25T23:16:23.343Z,103245.30
2018-12-25T23:19:06.768Z,103243.91
2018-12-25T23:21:58.862Z,103247.70
2018-12-25T23:24:42.968Z,103256.81
2018-12-25T23:27:27.287Z,103246.61
2018-12-25T23:30:07.296Z,103251.67
2018-12-25T23:32:52.354Z,103246.16
2018-12-25T23:35:38.402Z,103240.70
2018-12-25T23:38:18.478Z,103242.52
2018-12-25T23:41:00.531Z,103235.19
2018-12-25T23:43:34.873Z,103234.98
2018-12-25T23:46:16.211Z,103232.06
2018-12-25T23:48:53.451Z,103226.92
2018-12-25T23:51:32.557Z,103227.02
2018-12-25T23:54:13.419Z,103220.51
2018-12-25T23:57:03.938Z,103227.53
2018-12-25T23:59:51.195Z,103218.07
